Flight Track Log - Related Links

Times and Time Zones

All times are in EST time to prevent confusion due to time zone crossing. See the AMF494 flight status page for this flight to view local times or setup timezone preferences in your user account.


Time Position Orientation Groundspeed Altitude Reporting Facility
EST Latitude Longitude Course Direction KTS MPH feet Rate Location/Type
Sat 03:09:02 AM 45.2167 -122.6000 155° Southeast 226 260 15,000  Level
Sat 03:10:02 AM 45.1667 -122.5670 167° South 219 252 16,100 1,050 Climbing
Sat 03:11:02 AM 45.1167 -122.5500 161° South 214 246 17,100 1,050 Climbing
Sat 03:12:02 AM 45.0500 -122.5170 166° South 214 246 18,200 950 Climbing
Sat 03:13:02 AM 45.0000 -122.5000 155° Southeast 208 239 19,000 400 Climbing
Sat 03:14:02 AM 44.9500 -122.4670 154° Southeast 202 232 19,000  Level
Sat 03:15:02 AM 44.9000 -122.4330 161° South 208 239 19,000  Level
Sat 03:16:02 AM 44.8333 -122.4000 161° South 214 246 19,000  Level
Sat 03:17:02 AM 44.7667 -122.3670 166° South 214 246 19,000  Level
Sat 03:18:02 AM 44.7167 -122.3500 161° South 219 252 19,000  Level
Sat 03:19:02 AM 44.6500 -122.3170 154° Southeast 224 258 19,000  Level
Sat 03:20:02 AM 44.6000 -122.2830 170° South 224 258 19,000  Level
Sat 03:21:02 AM 44.5333 -122.2670 166° South 224 258 19,000  Level
Sat 03:22:02 AM 44.4833 -122.2500 170° South 219 252 19,000  Level
Sat 03:23:02 AM 44.4167 -122.2330 170° South 219 252 19,000  Level
Sat 03:24:02 AM 44.3500 -122.2170 180° South 219 252 19,000  Level
Sat 03:25:02 AM 44.3000 -122.2170 180° South 219 252 19,000  Level
Sat 03:26:02 AM 44.2333 -122.2170 180° South 219 252 19,000  Level
Sat 03:27:02 AM 44.1667 -122.2170 180° South 219 252 19,000  Level
Sat 03:28:02 AM 44.1167 -122.2170 170° South 214 246 19,000  Level
Sat 03:29:02 AM 44.0500 -122.2000 180° South 214 246 19,000  Level
Sat 03:30:02 AM 44.0000 -122.2000 180° South 214 246 19,000  Level
Sat 03:31:02 AM 43.9333 -122.2000 170° South 214 246 19,000  Level
Sat 03:32:02 AM 43.8667 -122.1830 180° South 214 246 19,000  Level
Sat 03:33:02 AM 43.8167 -122.1830 170° South 214 246 19,000  Level
Sat 03:34:02 AM 43.7500 -122.1670 180° South 219 252 19,000  Level
Sat 03:35:02 AM 43.6833 -122.1670 180° South 219 252 19,000  Level
Sat 03:36:02 AM 43.6167 -122.1670 166° South 219 252 19,000  Level
Sat 03:37:02 AM 43.5667 -122.1500 180° South 224 258 19,000  Level
Sat 03:38:02 AM 43.5000 -122.1500 170° South 224 258 19,000  Level
Sat 03:39:02 AM 43.4333 -122.1330 180° South 224 258 19,000  Level
Sat 03:40:02 AM 43.3833 -122.1330 170° South 224 258 19,000  Level
Sat 03:41:02 AM 43.3167 -122.1170 180° South 219 252 19,000  Level
Sat 03:42:02 AM 43.2500 -122.1170 180° South 231 266 19,000  Level
Sat 03:43:02 AM 43.1833 -122.1170 169° South 236 272 19,000  Level
Sat 03:44:02 AM 43.1167 -122.1000 169° South 236 272 19,000  Level
Sat 03:45:02 AM 43.0500 -122.0830 180° South 236 272 19,000  Level
Sat 03:46:02 AM 42.9833 -122.0830 167° South 236 272 19,000  Level
Sat 03:47:02 AM 42.9333 -122.0670 169° South 236 272 19,000  Level
Sat 03:48:02 AM 42.8667 -122.0500 166° South 230 265 19,000  Level
Sat 03:49:02 AM 42.8167 -122.0330 180° South 225 259 19,000  Level
Sat 03:50:02 AM 42.7500 -122.0330 170° South 225 259 19,000  Level
Sat 03:51:02 AM 42.6833 -122.0170 180° South 225 259 19,000  Level
Sat 03:52:02 AM 42.6333 -122.0170 180° South 225 259 19,000  Level
Sat 03:53:02 AM 42.5667 -122.0170 180° South 230 265 19,000  Level
Sat 03:54:02 AM 42.5000 -122.0170 180° South 230 265 19,000  Level
Sat 03:55:02 AM 42.4333 -122.0170 180° South 230 265 19,000  Level
Sat 03:56:02 AM 42.3833 -122.0170 180° South 225 259 19,000  Level
Sat 03:57:02 AM 42.3167 -122.0170 180° South 220 253 19,000  Level
Sat 03:58:02 AM 42.2500 -122.0170 180° South 220 253 19,000  Level
Sat 03:59:02 AM 42.2000 -122.0170 180° South 215 247 19,000  Level
Sat 04:00:02 AM 42.1333 -122.0170 180° South 215 247 19,000  Level
Sat 04:01:02 AM 42.0833 -122.0170 180° South 215 247 19,000  Level
Sat 04:02:02 AM 42.0167 -122.0170 180° South 220 253 19,000  Level
Sat 04:03:02 AM 41.9500 -122.0170 166° South 220 253 19,000  Level
Sat 04:04:02 AM 41.9000 -122.0000 180° South 225 259 19,000  Level
Sat 04:05:02 AM 41.8333 -122.0000 191° South 230 265 19,000  Level
Sat 04:06:02 AM 41.7667 -122.0170 169° South 235 270 19,000  Level
Sat 04:07:02 AM 41.7000 -122.0000 180° South 230 265 19,000  Level
Sat 04:08:02 AM 41.6500 -122.0000 180° South 224 258 19,000  Level
Sat 04:08:48 AM 41.6000 -122.0000 180° South 219 252 19,000  Level
Sat 04:09:48 AM 41.5500 -122.0000 180° South 219 252 19,000  Level
Sat 04:10:48 AM 41.4833 -122.0000 180° South 219 252 19,000  Level
Sat 04:11:48 AM 41.4167 -122.0000 180° South 224 258 19,000  Level
Sat 04:12:48 AM 41.3500 -122.0000 166° South 224 258 19,000  Level
Sat 04:13:48 AM 41.3000 -121.9830 166° South 219 252 19,000  Level
Sat 04:14:48 AM 41.2500 -121.9670 180° South 219 252 19,000  Level
Sat 04:15:48 AM 41.1833 -121.9670 180° South 219 252 19,000  Level
Sat 04:16:48 AM 41.1333 -121.9670 190° South 213 245 19,000  Level
Sat 04:17:48 AM 41.0667 -121.9830 180° South 213 245 19,000  Level
Sat 04:18:48 AM 41.0167 -121.9830 180° South 208 239 19,000  Level
Sat 04:19:48 AM 40.9667 -121.9830 180° South 208 239 19,000  Level
Sat 04:20:48 AM 40.9000 -121.9830 194° South 203 234 19,000  Level
Sat 04:21:47 AM 40.8500 -122.0000 180° South 203 234 19,000  Level
Sat 04:22:48 AM 40.8000 -122.0000 180° South 203 234 19,000  Level
Sat 04:23:47 AM 40.7333 -122.0000 180° South 198 228 19,000  Level
Sat 04:24:47 AM 40.6833 -122.0000 180° South 198 228 19,000  Level
Sat 04:25:48 AM 40.6167 -122.0000 180° South 198 228 19,000  Level
Sat 04:26:47 AM 40.5667 -122.0000 180° South 209 241 19,000  Level
Sat 04:27:47 AM 40.5000 -122.0000 180° South 209 241 19,000  Level
Sat 04:28:47 AM 40.4500 -122.0000 191° South 214 246 19,000  Level
Sat 04:29:47 AM 40.3833 -122.0170 180° South 214 246 19,000  Level
Sat 04:30:47 AM 40.3333 -122.0170 180° South 214 246 19,000  Level
Sat 04:31:47 AM 40.2667 -122.0170 180° South 214 246 19,000  Level
Sat 04:32:47 AM 40.2000 -122.0170 180° South 214 246 19,000  Level
Sat 04:33:47 AM 40.1500 -122.0170 180° South 214 246 19,000  Level
Sat 04:34:47 AM 40.0833 -122.0170 194° South 214 246 19,000  Level
Sat 04:35:47 AM 40.0333 -122.0330 180° South 214 246 19,000  Level
Sat 04:36:47 AM 39.9667 -122.0330 180° South 214 246 19,000  Level
Sat 04:37:47 AM 39.9000 -122.0330 180° South 214 246 19,000  Level
Sat 04:38:47 AM 39.8500 -122.0330 180° South 214 246 19,000  Level
Sat 04:39:47 AM 39.7833 -122.0330 195° South 219 252 19,000  Level
Sat 04:40:47 AM 39.7333 -122.0500 180° South 219 252 19,000  Level
Sat 04:41:47 AM 39.6667 -122.0500 191° South 219 252 19,000  Level
Sat 04:42:47 AM 39.6000 -122.0670 180° South 219 252 19,000  Level
Sat 04:43:47 AM 39.5500 -122.0670 180° South 219 252 19,000  Level
Sat 04:44:47 AM 39.4833 -122.0670 191° South 219 252 19,000  Level
Sat 04:45:47 AM 39.4167 -122.0830 180° South 219 252 19,000  Level
Sat 04:46:47 AM 39.3500 -122.0830 195° South 219 252 19,000  Level
Sat 04:47:47 AM 39.3000 -122.1000 180° South 219 252 19,000  Level
Sat 04:48:47 AM 39.2333 -122.1000 191° South 226 260 19,000  Level
Sat 04:49:47 AM 39.1667 -122.1170 180° South 226 260 19,000  Level
Sat 04:50:47 AM 39.1167 -122.1170 191° South 231 266 19,000  Level
Sat 04:51:47 AM 39.0500 -122.1330 180° South 236 272 19,000  Level
Sat 04:52:47 AM 38.9833 -122.1330 189° South 236 272 19,000 -550 Level
Sat 04:53:47 AM 38.9000 -122.1500 191° South 236 272 17,900 -1,250 Descending
Sat 04:54:47 AM 38.8333 -122.1670 191° South 248 285 16,500 -1,400 Descending
Sat 04:55:47 AM 38.7667 -122.1830 180° South 263 303 15,100 -1,350 Descending
Sat 04:56:47 AM 38.6833 -122.1830 180° South 268 308 13,800 -1,250 Descending
Sat 04:57:47 AM 38.6167 -122.1830 169° South 262 302 12,600 -1,250 Descending
Sat 04:58:47 AM 38.5500 -122.1670 180° South 254 292 11,300 -1,350 Descending
Sat 04:59:47 AM 38.4833 -122.1670 180° South 254 292 9,900 -1,100 Descending
Sat 05:00:47 AM 38.4167 -122.1670 191° South 254 292 9,100 -1,050 Descending
Sat 05:01:47 AM 38.3500 -122.1830 180° South 249 287 7,800 -1,429 Descending
Sat 05:02:11 AM 38.3167 -122.1830 202° Southwest 244 281 7,100 -1,200 Descending
Sat 05:02:47 AM 38.2833 -122.2000 180° South 249 287 6,600 -1,075 Descending
Sat 05:03:18 AM 38.2500 -122.2000 180° South 240 276 5,900 -1,200 Descending
Sat 05:03:47 AM 38.2167 -122.2000 360° North 249 287 5,400  Descending
Sat 05:04:07 AM 38.2500 -122.2000 188° South 240 276 5,900 13,600 Climbing
Sat 05:04:47 AM 38.1500 -122.2170 North 249 287 19,000  Climbing
Sat 05:05:07 AM 38.2500 -122.2000 189° South 240 276 5,900  Descending
Sat 05:05:47 AM 38.0833 -122.2330 143° Southeast 243 280 19,000 -885 Climbing
Sat 05:06:08 AM 38.0667 -122.2170 180° South 209 241 5,000  Descending
Sat 05:06:47 AM 38.0333 -122.2170 141° Southeast 224 258 19,000  Climbing
Sat 05:07:09 AM 38.0167 -122.2000 180° South 203 234 5,000  Descending
Sat 05:07:47 AM 37.9667 -122.2000 90° East 212 244 19,000  Climbing
Sat 05:08:09 AM 37.9667 -122.1830 142° Southeast 212 244 5,000  Descending
Sat 05:08:47 AM 37.9333 -122.1500 141° Southeast 199 229 19,000  Climbing
Sat 05:09:10 AM 37.9167 -122.1330 159° South 204 235 5,000  Descending
Sat 05:09:47 AM 37.8833 -122.1170 122° Southeast 199 229 19,000  Climbing
Sat 05:10:11 AM 37.8667 -122.0830 143° Southeast 192 221 5,000  Descending
Sat 05:10:47 AM 37.8500 -122.0670 141° Southeast 199 229 19,000  Climbing
Sat 05:11:11 AM 37.8333 -122.0500 142° Southeast 170 196 5,000  Descending
Sat 05:11:47 AM 37.8000 -122.0170 90° East 188 216 19,000 98 Climbing
Sat 05:12:12 AM 37.8000 -122.0000 158° South 180 207 5,100  Descending
Sat 05:12:47 AM 37.7667 -121.9830 143° Southeast 183 211 19,000 -98 Climbing
Sat 05:13:13 AM 37.7500 -121.9670 141° Southeast 177 204 5,000  Descending
Sat 05:13:47 AM 37.7333 -121.9500 141° Southeast 183 211 19,000  Climbing
Sat 05:14:13 AM 37.7167 -121.9330 123° Southeast 172 198 5,000  Descending
Sat 05:14:47 AM 37.7000 -121.9000 141° Southeast 183 211 19,000  Climbing
Sat 05:15:14 AM 37.6833 -121.8830 143° Southeast 166 191 5,000  Descending
Sat 05:15:47 AM 37.6667 -121.8670 217° Southwest 178 205 19,000 -590 Climbing
Sat 05:16:15 AM 37.6500 -121.8830 219° Southwest 171 197 4,400 -15,000 Descending
Sat 05:16:47 AM 37.6333 -121.9000 303° West 111 128 4,000 -590 Descending
Sat 05:17:16 AM 37.6500 -121.9330 270° West 131 151 3,800 -545 Descending
Sat 05:18:04 AM 37.6500 -121.9670 270° West 107 123 3,300 -625 Descending

Login

Don't have an account? Register now (free) for customized features, flight alerts, and more!